• Join FlightAware (Why Join?)
  • Login
  • US Flag 
01:08AM EST


 

Airport Tracker/Info


-or-


 

Live Flight TrackerFlight Track Log ✈ CTL13 ✈ 01-May-2013 ✈ KEYE - KMDW

Flight Track Log - Related Links

Times and Time Zones

All times are in EDT time to prevent confusion due to time zone crossing. See the CTL13 flight status page for this flight to view local times or setup timezone preferences in your user account.

Time Position Orientation Groundspeed Altitude Reporting Facility
EDT Latitude Longitude Course Direction KTS MPH feet Rate Location/Type
08:14PM 39.9167 -86.2833 360° North 148 170 2,600  Level Indianapolis TRACON
08:14PM 39.9500 -86.3000 339° North 156 180 3,200 660 Climbing Indianapolis TRACON
08:15PM 39.9658 -86.3083 338° Northwest 152 175 3,500 600 Climbing Chicago Center
08:16PM 40.0072 -86.3217 346° North 154 177 4,100 540 Climbing Chicago Center
08:17PM 40.0506 -86.3306 351° North 155 178 4,700 480 Climbing Chicago Center
08:18PM 40.0950 -86.3406 350° North 158 182 5,200 480 Climbing Chicago Center
08:19PM 40.1392 -86.3517 349° North 160 184 5,700 360 Climbing Chicago Center
08:20PM 40.1844 -86.3631 349° North 162 186 6,000 120 Climbing Chicago Center
08:21PM 40.2425 -86.3772 349° North 177 204 6,000  Level Chicago Center
08:21PM 40.2600 -86.3811 350° North 182 209 6,000  Level Chicago Center
08:22PM 40.2919 -86.3875 351° North 179 206 6,000  Level Chicago Center
08:22PM 40.3075 -86.3922 347° North 181 208 6,000  Level Chicago Center
08:23PM 40.3417 -86.3997 351° North 180 207 6,000  Level Chicago Center
08:25PM 40.4336 -86.4233 349° North 183 211 6,100  Climbing Indianapolis Center
08:25PM 40.4414 -86.4261 345° North 182 209 6,000 -120 Descending Chicago Center
08:26PM 40.4922 -86.4394 349° North 186 214 6,000  Level Chicago Center
08:27PM 40.5508 -86.4536 350° North 183 211 6,000  Level Chicago Center
08:28PM 40.6017 -86.4672 349° North 185 213 6,000  Level Chicago Center
08:29PM 40.6525 -86.4806 349° North 185 213 6,000  Level Chicago Center
08:30PM 40.7047 -86.4922 350° North 186 214 6,000  Level Chicago Center
08:31PM 40.7542 -86.5047 349° North 183 211 6,000  Level Chicago Center
08:32PM 40.8039 -86.5183 348° North 184 212 6,000  Level Chicago Center
08:33PM 40.8544 -86.5297 350° North 185 213 6,000  Level Chicago Center
08:35PM 40.9144 -86.5467 348° North 186 214 6,000  Level Chicago Center
08:36PM 40.9642 -86.5589 349° North 183 211 6,000  Level Chicago Center
08:37PM 41.0103 -86.5717 348° North 183 211 6,000  Level Chicago Center
08:38PM 41.0606 -86.5881 346° North 185 213 6,000  Level Chicago Center
08:39PM 41.1214 -86.6006 351° North 183 211 6,000  Level Chicago Center
08:40PM 41.1708 -86.6106 351° North 180 207 6,000  Level Chicago Center
08:41PM 41.2208 -86.6228 350° North 181 208 6,100  Climbing Chicago Center
08:42PM 41.2508 -86.6769 306° West 179 206 6,100  Level Chicago Center
08:43PM 41.2831 -86.7331 307° West 184 212 6,100  Level Chicago Center
08:44PM 41.3131 -86.7892 305° West 185 213 6,100 -60 Level Chicago Center
08:45PM 41.3500 -86.8544 307° West 185 213 6,000 -60 Descending Chicago Center
08:46PM 41.3694 -86.9164 293° West 185 213 6,000  Level Chicago Center
08:47PM 41.3836 -86.9800 287° West 183 211 6,000  Level Chicago Center
08:48PM 41.3969 -87.0428 286° West 181 208 6,000 -60 Level Chicago Center
08:49PM 41.4100 -87.1033 286° West 177 204 5,900  Descending Chicago Center
08:50PM 41.4167 -87.1500 281° West 177 204 6,000 60 Climbing Chicago TRACON
08:51PM 41.4333 -87.2167 288° West 178 205 6,000 -300 Level Chicago TRACON
08:52PM 41.4500 -87.2833 288° West 189 217 5,500 -720 Descending Chicago TRACON
08:53PM 41.4667 -87.3500 288° West 206 237 4,600 -840 Descending Chicago TRACON
08:53PM 41.4714 -87.3808 282° West 200 230 4,200 -480 Descending Chicago Center
08:54PM 41.5064 -87.4397 308° West 203 234 3,900 -180 Descending Chicago Center
08:55PM 41.5561 -87.4894 323° Northwest 195 224 3,900 -360 Level Chicago Center
08:57PM 41.6483 -87.5678 328° Northwest 196 226 2,900 -480 Descending Chicago Center
08:58PM 41.6972 -87.6069 329° Northwest 202 232 2,500 -480 Descending Chicago Center
08:59PM 41.7583 -87.6428 336° Northwest 203 234 1,900 -480 Descending Chicago Center
09:00PM 41.8006 -87.6833 324° Northwest 199 229 1,600 -300 Descending Chicago Center
09:01PM 41.8092 -87.7372 282° West 172 198 1,300 -300 Descending Chicago Center
09:04PM 41.7833 -87.7500 334° Northwest  Level FlightAware Approximate